createdAt,value
2022-10-08T00:00:12.313Z,99.90
2022-10-08T00:02:42.390Z,99.90
2022-10-08T00:05:15.837Z,99.90
2022-10-08T00:07:45.555Z,99.90
2022-10-08T00:10:15.571Z,99.90
2022-10-08T00:12:45.811Z,99.90
2022-10-08T00:15:16.029Z,99.90
2022-10-08T00:17:43.168Z,99.90
2022-10-08T00:20:12.085Z,99.90
2022-10-08T00:22:42.111Z,99.90
2022-10-08T00:25:10.202Z,99.90
2022-10-08T00:27:40.191Z,99.90
2022-10-08T00:30:13.495Z,99.90
2022-10-08T00:32:42.430Z,99.90
2022-10-08T00:35:12.461Z,99.90
2022-10-08T00:37:42.496Z,99.90
2022-10-08T00:40:09.729Z,99.90
2022-10-08T00:42:38.693Z,99.90
2022-10-08T00:45:11.520Z,99.90
2022-10-08T00:47:48.075Z,99.90
2022-10-08T00:50:34.243Z,99.90
2022-10-08T00:53:10.927Z,99.90
2022-10-08T00:55:43.804Z,99.90
2022-10-08T00:58:27.092Z,99.90
2022-10-08T01:00:57.977Z,99.90
2022-10-08T01:03:27.999Z,99.90
2022-10-08T01:06:29.176Z,99.90
2022-10-08T01:09:41.249Z,99.90
2022-10-08T01:12:19.198Z,99.90
2022-10-08T01:15:00.476Z,99.90
2022-10-08T01:17:28.503Z,99.90
2022-10-08T01:20:13.428Z,99.90
2022-10-08T01:22:52.235Z,99.90
2022-10-08T01:25:40.534Z,99.90
2022-10-08T01:28:19.983Z,99.90
2022-10-08T01:31:24.911Z,99.90
2022-10-08T01:34:16.077Z,99.90
2022-10-08T01:36:48.983Z,99.90
2022-10-08T01:39:20.300Z,99.90
2022-10-08T01:41:52.604Z,99.90
2022-10-08T01:44:40.960Z,99.90
2022-10-08T01:47:12.375Z,99.90
2022-10-08T01:50:07.827Z,99.90
2022-10-08T01:52:48.822Z,99.90
2022-10-08T01:55:23.965Z,99.90
2022-10-08T01:57:55.179Z,99.90
2022-10-08T02:00:24.680Z,99.90
2022-10-08T02:02:55.633Z,99.90
2022-10-08T02:05:24.799Z,99.90
2022-10-08T02:07:54.463Z,99.90
2022-10-08T02:10:25.075Z,99.90
2022-10-08T02:12:55.135Z,99.90
2022-10-08T02:15:47.105Z,99.90
2022-10-08T02:18:18.948Z,99.90
2022-10-08T02:21:01.894Z,99.90
2022-10-08T02:23:38.269Z,99.90
2022-10-08T02:26:13.560Z,99.90
2022-10-08T02:29:00.648Z,99.90
2022-10-08T02:31:30.393Z,99.90
2022-10-08T02:34:27.301Z,99.90
2022-10-08T02:37:04.587Z,99.90
2022-10-08T02:39:34.543Z,99.90
2022-10-08T02:42:06.807Z,99.90
2022-10-08T02:44:45.788Z,99.90
2022-10-08T02:47:18.491Z,99.90
2022-10-08T02:49:52.956Z,99.90
2022-10-08T02:52:23.068Z,99.90
2022-10-08T02:54:54.768Z,99.90
2022-10-08T02:57:43.444Z,99.90
2022-10-08T03:00:16.929Z,99.90
2022-10-08T03:02:56.130Z,99.90
2022-10-08T03:05:29.601Z,99.90
2022-10-08T03:08:04.772Z,99.90
2022-10-08T03:10:35.446Z,99.90
2022-10-08T03:13:06.557Z,99.90
2022-10-08T03:15:38.145Z,99.90
2022-10-08T03:18:10.292Z,99.90
2022-10-08T03:20:48.987Z,99.90
2022-10-08T03:23:18.554Z,99.90
2022-10-08T03:25:47.547Z,99.90
2022-10-08T03:28:16.535Z,99.90
2022-10-08T03:30:44.648Z,99.90
2022-10-08T03:33:13.665Z,99.90
2022-10-08T03:35:48.849Z,99.90
2022-10-08T03:38:16.496Z,99.90
2022-10-08T03:40:44.514Z,99.90
2022-10-08T03:43:14.660Z,99.90
2022-10-08T03:45:54.129Z,99.90
2022-10-08T03:48:23.816Z,99.90
2022-10-08T03:50:56.029Z,99.90
2022-10-08T03:53:26.303Z,99.90
2022-10-08T03:55:55.296Z,99.90
2022-10-08T03:58:22.182Z,99.90
2022-10-08T04:01:06.030Z,99.90
2022-10-08T04:03:37.227Z,99.90
2022-10-08T04:06:04.859Z,99.90
2022-10-08T04:08:32.843Z,99.90
2022-10-08T04:11:07.044Z,99.90
2022-10-08T04:13:40.735Z,99.90
2022-10-08T04:16:12.383Z,99.90
2022-10-08T04:18:40.923Z,99.90
2022-10-08T04:21:12.397Z,99.90
2022-10-08T04:23:44.185Z,99.90
2022-10-08T04:26:15.216Z,99.90
2022-10-08T04:28:45.743Z,99.90
2022-10-08T04:31:21.972Z,99.90
2022-10-08T04:33:52.455Z,99.90
2022-10-08T04:36:25.405Z,99.90
2022-10-08T04:38:58.524Z,99.90
2022-10-08T04:41:26.700Z,99.90
2022-10-08T04:44:00.917Z,99.90
2022-10-08T04:46:31.120Z,99.90
2022-10-08T04:48:58.387Z,99.90
2022-10-08T04:51:28.465Z,99.90
2022-10-08T04:53:57.503Z,99.90
2022-10-08T04:56:30.852Z,99.90
2022-10-08T04:59:04.435Z,99.90
2022-10-08T05:01:31.662Z,99.90
2022-10-08T05:04:01.760Z,99.90
2022-10-08T05:06:35.991Z,99.90
2022-10-08T05:09:04.291Z,99.90
2022-10-08T05:11:33.663Z,99.90
2022-10-08T05:14:06.726Z,99.90
2022-10-08T05:16:37.177Z,99.90
2022-10-08T05:19:06.647Z,99.90
2022-10-08T05:21:33.728Z,99.90
2022-10-08T05:24:07.785Z,99.90
2022-10-08T05:26:58.210Z,99.90
2022-10-08T05:29:30.391Z,99.90
2022-10-08T05:31:59.447Z,99.90
2022-10-08T05:34:27.789Z,99.90
2022-10-08T05:36:54.681Z,99.90
2022-10-08T05:39:24.728Z,99.90
2022-10-08T05:41:51.951Z,99.90
2022-10-08T05:44:22.008Z,99.90
2022-10-08T05:46:51.175Z,99.90
2022-10-08T05:49:23.321Z,99.90
2022-10-08T05:51:53.432Z,99.90
2022-10-08T05:54:23.328Z,99.90
2022-10-08T05:56:53.527Z,99.90
2022-10-08T05:59:24.093Z,99.90
2022-10-08T06:01:54.145Z,99.90
2022-10-08T06:04:21.165Z,99.90
2022-10-08T06:06:48.200Z,99.90
2022-10-08T06:09:25.418Z,99.90
2022-10-08T06:11:53.424Z,99.90
2022-10-08T06:14:24.454Z,99.90
2022-10-08T06:16:52.429Z,99.90
2022-10-08T06:19:19.480Z,99.90
2022-10-08T06:21:50.384Z,99.90
2022-10-08T06:24:21.671Z,99.90
2022-10-08T06:26:50.678Z,99.90
2022-10-08T06:29:18.831Z,99.90
2022-10-08T06:31:47.407Z,99.90
2022-10-08T06:34:16.821Z,99.90
2022-10-08T06:36:44.780Z,99.90
2022-10-08T06:39:14.759Z,99.90
2022-10-08T06:41:42.238Z,99.90
2022-10-08T06:44:13.416Z,99.90
2022-10-08T06:46:40.996Z,99.90
2022-10-08T06:49:10.995Z,99.90
2022-10-08T06:51:38.092Z,98.30
2022-10-08T06:54:07.933Z,97.20
2022-10-08T06:56:37.077Z,96.90
2022-10-08T06:59:05.850Z,96.70
2022-10-08T07:01:35.239Z,94.90
2022-10-08T07:04:05.508Z,93.10
2022-10-08T07:06:34.145Z,91.50
2022-10-08T07:09:04.625Z,90.60
2022-10-08T07:11:33.512Z,90.70
2022-10-08T07:14:03.682Z,88.70
2022-10-08T07:16:30.946Z,87.90
2022-10-08T07:19:01.251Z,85.10
2022-10-08T07:21:29.427Z,82.80
2022-10-08T07:23:58.580Z,77.60
2022-10-08T07:26:28.638Z,76.80
2022-10-08T07:29:04.022Z,75.30
2022-10-08T07:31:33.636Z,71.40
2022-10-08T07:34:03.896Z,71.50
2022-10-08T07:36:33.502Z,71.20
2022-10-08T07:39:03.573Z,69.50
2022-10-08T07:41:31.837Z,67.50
2022-10-08T07:44:01.661Z,65.70
2022-10-08T07:46:33.710Z,65.70
2022-10-08T07:49:01.775Z,64.00
2022-10-08T07:51:31.933Z,64.00
2022-10-08T07:54:04.947Z,64.10
2022-10-08T07:56:34.367Z,63.70
2022-10-08T07:59:03.698Z,62.90
2022-10-08T08:01:31.983Z,61.40
2022-10-08T08:04:10.796Z,61.00
2022-10-08T08:06:43.891Z,60.00
2022-10-08T08:09:12.399Z,59.50
2022-10-08T08:11:40.377Z,57.70
2022-10-08T08:14:09.052Z,58.70
2022-10-08T08:16:39.777Z,57.90
2022-10-08T08:19:09.820Z,57.80
2022-10-08T08:21:38.476Z,56.90
2022-10-08T08:24:13.668Z,57.20
2022-10-08T08:26:43.488Z,56.50
2022-10-08T08:29:18.820Z,57.40
2022-10-08T08:31:49.343Z,56.70
2022-10-08T08:34:20.840Z,54.00
2022-10-08T08:36:53.737Z,54.40
2022-10-08T08:39:27.939Z,54.30
2022-10-08T08:42:22.457Z,54.70
2022-10-08T08:45:02.931Z,54.30
2022-10-08T08:47:41.077Z,54.70
2022-10-08T08:50:35.190Z,54.40
2022-10-08T08:53:04.020Z,53.80
2022-10-08T08:55:54.262Z,53.00
2022-10-08T08:58:27.939Z,53.40
2022-10-08T09:01:25.427Z,52.90
2022-10-08T09:03:56.879Z,52.90
2022-10-08T09:06:27.723Z,52.80
2022-10-08T09:09:27.436Z,52.80
2022-10-08T09:11:58.040Z,52.90
2022-10-08T09:14:47.837Z,53.50
2022-10-08T09:17:19.705Z,53.20
2022-10-08T09:19:48.580Z,53.30
2022-10-08T09:22:23.287Z,55.30
2022-10-08T09:24:53.248Z,55.40
2022-10-08T09:27:20.343Z,55.60
2022-10-08T09:29:47.416Z,54.80
2022-10-08T09:32:17.095Z,54.00
2022-10-08T09:34:45.759Z,53.40
2022-10-08T09:37:21.652Z,53.10
2022-10-08T09:40:07.599Z,52.90
2022-10-08T09:42:34.600Z,52.00
2022-10-08T09:45:04.029Z,52.80
2022-10-08T09:47:31.235Z,52.80
2022-10-08T09:50:21.964Z,52.60
2022-10-08T09:52:50.646Z,52.90
2022-10-08T09:55:22.672Z,54.00
2022-10-08T09:57:57.661Z,52.80
2022-10-08T10:00:28.870Z,53.30
2022-10-08T10:02:57.757Z,53.70
2022-10-08T10:05:31.085Z,55.00
2022-10-08T10:07:58.316Z,55.40
2022-10-08T10:10:45.323Z,56.40
2022-10-08T10:13:20.144Z,57.70
2022-10-08T10:15:54.178Z,59.90
2022-10-08T10:18:31.227Z,60.90
2022-10-08T10:21:05.945Z,60.00
2022-10-08T10:24:02.953Z,61.10
2022-10-08T10:26:35.211Z,63.40
2022-10-08T10:29:25.358Z,66.60
2022-10-08T10:32:02.824Z,70.80
2022-10-08T10:34:33.876Z,70.10
2022-10-08T10:37:06.166Z,69.70
2022-10-08T10:39:35.807Z,71.30
2022-10-08T10:42:08.548Z,70.50
2022-10-08T10:44:54.761Z,67.20
2022-10-08T10:47:41.308Z,63.90
2022-10-08T10:50:15.969Z,61.90
2022-10-08T10:52:49.118Z,60.00
2022-10-08T10:55:34.866Z,59.90
2022-10-08T10:58:30.119Z,59.00
2022-10-08T11:01:27.468Z,58.80
2022-10-08T11:04:31.349Z,58.80
2022-10-08T11:07:37.389Z,58.60
2022-10-08T11:10:48.985Z,58.00
2022-10-08T11:13:25.037Z,58.40
2022-10-08T11:16:06.612Z,59.10
2022-10-08T11:18:39.335Z,60.50
2022-10-08T11:21:07.191Z,63.20
2022-10-08T11:23:55.219Z,65.30
2022-10-08T11:26:36.159Z,67.80
2022-10-08T11:29:17.192Z,71.00
2022-10-08T11:31:48.306Z,72.10
2022-10-08T11:34:31.875Z,71.10
2022-10-08T11:37:32.180Z,71.40
2022-10-08T11:40:06.787Z,71.50
2022-10-08T11:43:02.304Z,72.30
2022-10-08T11:45:38.457Z,72.50
2022-10-08T11:48:26.169Z,71.20
2022-10-08T11:50:54.228Z,70.60
2022-10-08T11:53:24.367Z,70.60
2022-10-08T11:55:59.073Z,70.80
2022-10-08T11:58:30.538Z,70.90
2022-10-08T12:01:16.761Z,70.80
2022-10-08T12:04:01.864Z,70.80
2022-10-08T12:06:33.616Z,71.70
2022-10-08T12:09:08.107Z,73.60
2022-10-08T12:11:45.649Z,74.20
2022-10-08T12:14:14.495Z,73.90
2022-10-08T12:16:47.706Z,73.60
2022-10-08T12:19:35.852Z,74.30
2022-10-08T12:22:05.259Z,75.10
2022-10-08T12:24:38.260Z,76.00
2022-10-08T12:27:17.464Z,75.80
2022-10-08T12:29:58.668Z,75.70
2022-10-08T12:32:51.204Z,75.60
2022-10-08T12:35:34.027Z,75.20
2022-10-08T12:38:18.536Z,75.30
2022-10-08T12:40:48.491Z,74.50
2022-10-08T12:43:36.461Z,74.10
2022-10-08T12:46:28.197Z,74.20
2022-10-08T12:49:23.025Z,73.60
2022-10-08T12:52:21.169Z,72.80
2022-10-08T12:54:51.649Z,72.20
2022-10-08T12:57:23.272Z,71.10
2022-10-08T12:59:50.636Z,70.20
2022-10-08T13:02:44.275Z,69.90
2022-10-08T13:05:33.062Z,70.40
2022-10-08T13:08:29.657Z,70.60
2022-10-08T13:10:58.149Z,70.00
2022-10-08T13:13:38.652Z,70.60
2022-10-08T13:16:17.830Z,72.10
2022-10-08T13:18:52.989Z,72.90
2022-10-08T13:21:31.877Z,74.00
2022-10-08T13:24:00.141Z,74.10
2022-10-08T13:26:52.252Z,74.90
2022-10-08T13:29:22.256Z,75.10
2022-10-08T13:32:12.561Z,74.00
2022-10-08T13:34:39.456Z,74.00
2022-10-08T13:37:26.989Z,73.80
2022-10-08T13:39:55.378Z,73.60
2022-10-08T13:42:25.560Z,75.10
2022-10-08T13:44:52.814Z,74.80
2022-10-08T13:47:21.995Z,75.10
2022-10-08T13:49:49.255Z,75.10
2022-10-08T13:52:21.528Z,75.10
2022-10-08T13:54:51.540Z,75.20
2022-10-08T13:57:18.592Z,74.60
2022-10-08T13:59:45.512Z,73.60
2022-10-08T14:02:14.529Z,74.00
2022-10-08T14:04:41.480Z,73.50
2022-10-08T14:07:25.724Z,73.70
2022-10-08T14:09:55.186Z,73.50
2022-10-08T14:12:30.227Z,73.00
2022-10-08T14:14:57.496Z,73.00
2022-10-08T14:17:24.510Z,73.90
2022-10-08T14:19:52.205Z,74.70
2022-10-08T14:22:19.171Z,74.50
2022-10-08T14:24:46.401Z,74.60
2022-10-08T14:27:13.299Z,74.60
2022-10-08T14:29:40.149Z,75.00
2022-10-08T14:32:08.529Z,75.10
2022-10-08T14:34:36.029Z,75.40
2022-10-08T14:37:03.570Z,75.40
2022-10-08T14:39:30.433Z,75.30
2022-10-08T14:41:58.628Z,75.60
2022-10-08T14:44:25.575Z,75.60
2022-10-08T14:46:53.002Z,75.20
2022-10-08T14:49:20.792Z,75.50
2022-10-08T14:51:48.039Z,76.10
2022-10-08T14:54:14.983Z,76.60
2022-10-08T14:56:42.992Z,76.90
2022-10-08T14:59:11.079Z,77.20
2022-10-08T15:01:38.312Z,77.20
2022-10-08T15:04:06.435Z,77.40
2022-10-08T15:06:34.445Z,77.90
2022-10-08T15:09:01.517Z,78.10
2022-10-08T15:11:28.485Z,78.40
2022-10-08T15:13:55.623Z,78.20
2022-10-08T15:16:23.715Z,78.70
2022-10-08T15:18:50.701Z,79.30
2022-10-08T15:21:18.959Z,79.40
2022-10-08T15:23:45.952Z,78.70
2022-10-08T15:26:15.657Z,78.80
2022-10-08T15:28:44.637Z,79.60
2022-10-08T15:31:17.337Z,79.70
2022-10-08T15:33:46.823Z,80.00
2022-10-08T15:36:23.473Z,80.30
2022-10-08T15:39:02.300Z,81.00
2022-10-08T15:41:31.312Z,81.60
2022-10-08T15:44:09.844Z,82.10
2022-10-08T15:46:36.819Z,83.00
2022-10-08T15:49:04.728Z,83.00
2022-10-08T15:51:33.551Z,83.10
2022-10-08T15:54:01.357Z,82.80
2022-10-08T15:56:28.885Z,82.30
2022-10-08T15:58:58.058Z,82.20
2022-10-08T16:01:25.684Z,82.30
2022-10-08T16:03:54.699Z,83.20
2022-10-08T16:06:33.516Z,82.60
2022-10-08T16:09:00.923Z,82.70
2022-10-08T16:11:31.186Z,82.90
2022-10-08T16:14:06.631Z,83.00
2022-10-08T16:16:33.591Z,83.20
2022-10-08T16:19:03.116Z,83.70
2022-10-08T16:21:32.076Z,84.10
2022-10-08T16:23:59.767Z,84.60
2022-10-08T16:26:29.020Z,84.90
2022-10-08T16:29:00.390Z,84.80
2022-10-08T16:31:29.363Z,84.80
2022-10-08T16:33:58.684Z,85.00
2022-10-08T16:36:26.515Z,85.40
2022-10-08T16:38:55.353Z,85.50
2022-10-08T16:41:32.620Z,85.60
2022-10-08T16:44:11.836Z,85.80
2022-10-08T16:46:41.870Z,86.20
2022-10-08T16:49:22.710Z,87.10
2022-10-08T16:51:52.049Z,87.40
2022-10-08T16:54:21.140Z,87.70
2022-10-08T16:56:49.419Z,88.10
2022-10-08T16:59:23.965Z,88.50
2022-10-08T17:02:01.685Z,89.00
2022-10-08T17:04:32.847Z,89.30
2022-10-08T17:06:59.809Z,89.60
2022-10-08T17:09:26.748Z,89.70
2022-10-08T17:11:53.911Z,89.90
2022-10-08T17:14:22.162Z,89.90
2022-10-08T17:16:52.235Z,90.20
2022-10-08T17:19:20.672Z,90.50
2022-10-08T17:21:47.647Z,90.60
2022-10-08T17:24:17.509Z,90.70
2022-10-08T17:26:44.504Z,90.80
2022-10-08T17:29:14.568Z,90.80
2022-10-08T17:31:46.899Z,91.00
2022-10-08T17:34:14.034Z,91.10
2022-10-08T17:36:44.625Z,91.00
2022-10-08T17:39:14.031Z,91.00
2022-10-08T17:41:43.319Z,91.20
2022-10-08T17:44:13.684Z,91.10
2022-10-08T17:46:47.833Z,91.30
2022-10-08T17:49:18.511Z,91.30
2022-10-08T17:51:47.468Z,91.30
2022-10-08T17:54:16.521Z,91.30
2022-10-08T17:56:43.505Z,91.40
2022-10-08T17:59:15.309Z,91.60
2022-10-08T18:01:46.037Z,91.70
2022-10-08T18:04:18.230Z,91.70
2022-10-08T18:06:53.563Z,91.90
2022-10-08T18:09:22.210Z,92.10
2022-10-08T18:11:53.356Z,92.10
2022-10-08T18:14:21.896Z,92.60
2022-10-08T18:16:49.962Z,92.10
2022-10-08T18:19:18.423Z,92.30
2022-10-08T18:21:46.842Z,92.20
2022-10-08T18:24:17.878Z,92.30
2022-10-08T18:26:46.045Z,92.30
2022-10-08T18:29:16.254Z,92.40
2022-10-08T18:31:45.017Z,92.50
2022-10-08T18:34:21.019Z,92.60
2022-10-08T18:36:49.180Z,92.70
2022-10-08T18:39:22.567Z,92.80
2022-10-08T18:41:55.764Z,93.10
2022-10-08T18:44:25.325Z,93.30
2022-10-08T18:46:54.432Z,93.40
2022-10-08T18:49:30.099Z,93.60
2022-10-08T18:52:00.161Z,93.70
2022-10-08T18:54:27.155Z,93.80
2022-10-08T18:56:59.187Z,94.00
2022-10-08T18:59:31.101Z,94.10
2022-10-08T19:02:01.380Z,94.30
2022-10-08T19:04:31.535Z,94.50
2022-10-08T19:07:00.639Z,94.70
2022-10-08T19:09:27.679Z,95.00
2022-10-08T19:11:57.741Z,95.10
2022-10-08T19:14:28.961Z,95.30
2022-10-08T19:16:56.868Z,95.60
2022-10-08T19:19:27.507Z,95.60
2022-10-08T19:21:55.772Z,95.80
2022-10-08T19:24:25.697Z,95.90
2022-10-08T19:26:54.665Z,96.10
2022-10-08T19:29:29.390Z,96.20
2022-10-08T19:31:58.551Z,96.30
2022-10-08T19:34:27.824Z,96.50
2022-10-08T19:36:56.917Z,96.60
2022-10-08T19:39:27.043Z,96.70
2022-10-08T19:41:56.045Z,96.70
2022-10-08T19:44:24.132Z,96.90
2022-10-08T19:46:52.487Z,97.20
2022-10-08T19:49:23.929Z,97.20
2022-10-08T19:51:56.410Z,97.20
2022-10-08T19:54:28.175Z,97.30
2022-10-08T19:56:56.100Z,97.40
2022-10-08T19:59:22.980Z,97.60
2022-10-08T20:01:49.895Z,97.70
2022-10-08T20:04:17.949Z,97.80
2022-10-08T20:06:48.096Z,98.00
2022-10-08T20:09:15.235Z,98.10
2022-10-08T20:11:45.188Z,98.40
2022-10-08T20:14:14.554Z,98.30
2022-10-08T20:16:43.072Z,98.50
2022-10-08T20:19:16.825Z,98.60
2022-10-08T20:21:44.321Z,98.60
2022-10-08T20:24:14.942Z,98.70
2022-10-08T20:26:43.757Z,98.80
2022-10-08T20:29:16.450Z,98.90
2022-10-08T20:31:49.418Z,99.10
2022-10-08T20:34:20.429Z,99.10
2022-10-08T20:36:51.202Z,99.20
2022-10-08T20:39:22.253Z,99.30
2022-10-08T20:41:49.416Z,99.60
2022-10-08T20:44:19.625Z,99.60
2022-10-08T20:46:50.884Z,99.80
2022-10-08T20:49:18.185Z,99.90
2022-10-08T20:51:47.141Z,99.90
2022-10-08T20:54:16.096Z,99.90
2022-10-08T20:56:43.829Z,99.90
2022-10-08T20:59:15.411Z,99.90
2022-10-08T21:01:42.532Z,99.90
2022-10-08T21:04:11.579Z,99.90
2022-10-08T21:06:41.474Z,99.90
2022-10-08T21:09:08.809Z,99.90
2022-10-08T21:11:37.633Z,99.90
2022-10-08T21:14:15.578Z,99.90
2022-10-08T21:16:45.721Z,99.90
2022-10-08T21:19:24.334Z,99.90
2022-10-08T21:21:53.426Z,99.90
2022-10-08T21:24:26.388Z,99.90
2022-10-08T21:26:55.340Z,99.90
2022-10-08T21:29:22.321Z,99.90
2022-10-08T21:31:49.396Z,99.90
2022-10-08T21:34:18.405Z,99.90
2022-10-08T21:36:47.374Z,99.90
2022-10-08T21:39:17.337Z,99.90
2022-10-08T21:41:52.523Z,99.90
2022-10-08T21:44:22.580Z,99.90
2022-10-08T21:46:49.518Z,99.90
2022-10-08T21:49:22.255Z,99.90
2022-10-08T21:51:49.365Z,99.90
2022-10-08T21:54:19.322Z,99.90
2022-10-08T21:56:46.342Z,99.90
2022-10-08T21:59:19.396Z,99.90
2022-10-08T22:01:57.715Z,99.90
2022-10-08T22:04:25.723Z,99.90
2022-10-08T22:06:55.765Z,99.90
2022-10-08T22:09:26.115Z,99.90
2022-10-08T22:11:56.278Z,99.90
2022-10-08T22:14:25.873Z,99.90
2022-10-08T22:16:58.734Z,99.90
2022-10-08T22:19:26.732Z,99.90
2022-10-08T22:21:53.699Z,99.90
2022-10-08T22:24:22.860Z,99.90
2022-10-08T22:26:52.855Z,99.90
2022-10-08T22:29:20.813Z,99.90
2022-10-08T22:31:49.760Z,99.90
2022-10-08T22:34:17.813Z,99.90
2022-10-08T22:36:45.166Z,99.90
2022-10-08T22:39:15.204Z,99.90
2022-10-08T22:41:44.754Z,99.90
2022-10-08T22:44:13.860Z,99.90
2022-10-08T22:46:40.854Z,99.90
2022-10-08T22:49:11.158Z,99.90
2022-10-08T22:51:41.314Z,99.90
2022-10-08T22:54:11.303Z,99.90
2022-10-08T22:56:38.721Z,99.90
2022-10-08T22:59:07.722Z,99.90
2022-10-08T23:01:35.890Z,99.90
2022-10-08T23:04:03.025Z,99.90
2022-10-08T23:06:32.738Z,99.90
2022-10-08T23:09:05.737Z,99.90
2022-10-08T23:11:33.818Z,99.90
2022-10-08T23:14:01.753Z,99.90
2022-10-08T23:16:32.344Z,99.90
2022-10-08T23:19:08.597Z,99.90
2022-10-08T23:21:37.705Z,99.90
2022-10-08T23:24:05.743Z,99.90
2022-10-08T23:26:34.253Z,99.90
2022-10-08T23:29:03.580Z,99.90
2022-10-08T23:31:33.681Z,99.90
2022-10-08T23:34:08.701Z,99.90
2022-10-08T23:36:42.699Z,99.90
2022-10-08T23:39:14.118Z,99.90
2022-10-08T23:41:41.336Z,99.90
2022-10-08T23:44:16.437Z,99.90
2022-10-08T23:46:44.772Z,99.90
2022-10-08T23:49:11.841Z,99.90
2022-10-08T23:51:39.889Z,99.90
2022-10-08T23:54:08.035Z,99.90
2022-10-08T23:56:37.016Z,99.90
2022-10-08T23:59:05.029Z,99.90
